Time;durP1;ratioP1;P1;durP2;ratioP2;P2;SDS_P1;SDS_P2;PMS_P1;PMS_P2;Temp;Humidity;BMP_temperature;BMP_pressure;BME280_temperature;BME280_humidity;BME280_pressure;Samples;Min_cycle;Max_cycle;Signal;HPM_P1;HPM_P2
2024/01/07 00:01:58;;;;;;;4.33;2.63;;;4.90;99.90;;;;;;5033405;28;20103;-73
2024/01/07 00:04:23;;;;;;;4.63;2.25;;;5.00;99.90;;;;;;5038543;28;20335;-73
2024/01/07 00:06:49;;;;;;;5.60;2.63;;;4.90;99.90;;;;;;5041391;28;20051;-73
2024/01/07 00:09:16;;;;;;;5.00;3.20;;;4.90;99.90;;;;;;5033821;28;20440;-73
2024/01/07 00:11:42;;;;;;;4.28;2.72;;;4.90;99.90;;;;;;5043663;28;20426;-74
2024/01/07 00:14:08;;;;;;;5.20;3.27;;;4.90;99.90;;;;;;5038736;28;20041;-73
2024/01/07 00:16:34;;;;;;;3.78;2.53;;;5.00;99.90;;;;;;5038504;28;20283;-72
2024/01/07 00:18:59;;;;;;;4.30;2.88;;;4.90;99.90;;;;;;5036160;28;20033;-73
2024/01/07 00:21:25;;;;;;;3.63;2.63;;;5.00;99.90;;;;;;5033894;28;20514;-73
2024/01/07 00:23:51;;;;;;;4.40;2.87;;;5.00;99.90;;;;;;5037680;28;20055;-73
2024/01/07 00:26:16;;;;;;;5.83;3.03;;;4.90;99.90;;;;;;5037828;28;20036;-73
2024/01/07 00:28:42;;;;;;;5.97;3.00;;;5.00;99.90;;;;;;5054318;28;20029;-74
2024/01/07 00:31:09;;;;;;;3.63;1.90;;;5.00;99.90;;;;;;5029503;28;20578;-74
2024/01/07 00:33:35;;;;;;;4.03;2.33;;;5.00;99.90;;;;;;5011195;28;20025;-74
2024/01/07 00:36:01;;;;;;;5.07;2.55;;;5.00;99.90;;;;;;5011959;28;20888;-74
2024/01/07 00:38:27;;;;;;;5.70;3.20;;;5.00;99.90;;;;;;5044624;28;20032;-73
2024/01/07 00:40:53;;;;;;;4.93;2.92;;;5.00;99.90;;;;;;5048523;28;20025;-74
2024/01/07 00:43:19;;;;;;;6.30;3.07;;;5.00;99.90;;;;;;5064146;28;20049;-73
2024/01/07 00:45:44;;;;;;;6.27;3.20;;;5.00;99.90;;;;;;5063502;28;20360;-73
2024/01/07 00:48:10;;;;;;;4.40;2.83;;;5.00;99.90;;;;;;5047674;28;20033;-73
2024/01/07 00:50:36;;;;;;;4.93;2.93;;;5.00;99.90;;;;;;5047406;28;20025;-74
2024/01/07 00:53:01;;;;;;;6.40;3.58;;;5.00;99.90;;;;;;5029685;28;20108;-73
2024/01/07 00:55:27;;;;;;;6.70;3.90;;;5.00;99.90;;;;;;5047214;28;20040;-73
2024/01/07 00:57:53;;;;;;;5.07;2.47;;;5.00;99.90;;;;;;5029849;28;20370;-73
2024/01/07 01:00:19;;;;;;;3.17;2.50;;;5.00;99.90;;;;;;5044952;28;20025;-73
2024/01/07 01:02:45;;;;;;;4.00;2.92;;;5.00;99.90;;;;;;5028175;28;20495;-73
2024/01/07 01:05:11;;;;;;;4.35;3.05;;;5.00;99.90;;;;;;5028561;28;20515;-73
2024/01/07 01:07:36;;;;;;;3.78;2.72;;;5.00;99.90;;;;;;5028395;28;20033;-72
2024/01/07 01:10:02;;;;;;;3.47;2.60;;;5.10;99.90;;;;;;5028374;28;20108;-73
2024/01/07 01:12:28;;;;;;;5.35;2.40;;;5.00;99.90;;;;;;5029028;28;20052;-73
2024/01/07 01:14:53;;;;;;;4.77;3.10;;;5.00;99.90;;;;;;5030573;28;20036;-73
2024/01/07 01:17:19;;;;;;;3.13;2.57;;;5.00;99.90;;;;;;5013879;28;20032;-73
2024/01/07 01:19:45;;;;;;;3.17;2.10;;;5.00;99.90;;;;;;5047076;28;20029;-73
2024/01/07 01:22:10;;;;;;;4.33;2.33;;;5.10;99.90;;;;;;5027136;28;20493;-73
2024/01/07 01:24:36;;;;;;;3.13;1.90;;;5.10;99.90;;;;;;5031654;28;20538;-73
2024/01/07 01:27:02;;;;;;;6.47;2.60;;;5.10;99.90;;;;;;5031642;28;20033;-73
2024/01/07 01:29:27;;;;;;;3.90;2.23;;;5.10;99.90;;;;;;5031818;28;20618;-73
2024/01/07 01:31:53;;;;;;;2.80;2.13;;;5.10;99.90;;;;;;5031291;28;20068;-73
2024/01/07 01:34:18;;;;;;;3.33;2.30;;;5.10;99.90;;;;;;5030957;28;20087;-73
2024/01/07 01:36:44;;;;;;;2.30;1.93;;;5.10;99.90;;;;;;5031057;28;20020;-73
2024/01/07 01:39:09;;;;;;;3.93;2.70;;;5.10;99.90;;;;;;5032719;28;20167;-73
2024/01/07 01:41:35;;;;;;;4.10;2.53;;;5.10;99.90;;;;;;5050905;28;20060;-73
2024/01/07 01:44:01;;;;;;;3.00;2.27;;;5.10;99.90;;;;;;5051123;28;20272;-73
2024/01/07 01:46:29;;;;;;;4.75;2.85;;;5.10;99.90;;;;;;5066586;28;20025;-74
2024/01/07 01:48:55;;;;;;;3.05;2.33;;;5.10;99.90;;;;;;5033034;28;20494;-73
2024/01/07 01:51:21;;;;;;;2.92;2.15;;;5.10;99.90;;;;;;5050198;28;20029;-73
2024/01/07 01:53:49;;;;;;;2.97;2.17;;;5.10;99.90;;;;;;5051399;28;20096;-73
2024/01/07 01:56:18;;;;;;;2.05;1.67;;;5.10;99.90;;;;;;5051486;28;20029;-73
2024/01/07 01:58:44;;;;;;;3.00;2.10;;;5.20;99.90;;;;;;5033338;28;20408;-73
2024/01/07 02:01:10;;;;;;;2.22;1.90;;;5.20;99.90;;;;;;5033368;28;20040;-73
2024/01/07 02:03:36;;;;;;;2.38;2.10;;;5.20;99.90;;;;;;5051257;28;20029;-73
2024/01/07 02:06:02;;;;;;;2.67;2.20;;;5.20;99.90;;;;;;5032719;28;20124;-73
2024/01/07 02:08:28;;;;;;;3.25;2.20;;;5.20;99.90;;;;;;5050179;28;20115;-73
2024/01/07 02:10:53;;;;;;;3.63;2.60;;;5.20;99.90;;;;;;5049750;28;20398;-73
2024/01/07 02:13:19;;;;;;;3.73;2.50;;;5.20;99.90;;;;;;5050791;28;20036;-73
2024/01/07 02:15:45;;;;;;;4.15;2.80;;;5.20;99.90;;;;;;5051510;28;20271;-73
2024/01/07 02:18:10;;;;;;;3.30;2.20;;;5.20;99.90;;;;;;5033401;28;20787;-73
2024/01/07 02:20:36;;;;;;;3.30;1.97;;;5.20;99.90;;;;;;5012498;28;20025;-73
2024/01/07 02:23:03;;;;;;;3.57;2.37;;;5.20;99.90;;;;;;5030342;28;20022;-73
2024/01/07 02:25:29;;;;;;;5.43;3.28;;;5.10;99.90;;;;;;5030215;28;20033;-73
2024/01/07 02:27:55;;;;;;;3.70;2.83;;;5.10;99.90;;;;;;5030143;28;20021;-73
2024/01/07 02:30:20;;;;;;;5.47;3.00;;;5.10;99.90;;;;;;5040109;28;20040;-73
2024/01/07 02:32:46;;;;;;;5.83;3.50;;;5.10;99.90;;;;;;5050440;28;20091;-73
2024/01/07 02:35:11;;;;;;;7.00;4.00;;;5.10;99.90;;;;;;5050721;28;20482;-73
2024/01/07 02:37:37;;;;;;;5.83;4.20;;;5.20;99.90;;;;;;5050105;28;20036;-73
2024/01/07 02:40:04;;;;;;;5.83;4.03;;;5.20;99.90;;;;;;5050286;28;20032;-73
2024/01/07 02:42:29;;;;;;;;;;;5.10;99.90;;;;;;5050456;28;20400;-73
2024/01/07 02:44:55;;;;;;;8.63;4.28;;;5.10;99.90;;;;;;5031807;28;19912;-73
2024/01/07 02:47:20;;;;;;;5.90;4.57;;;5.10;99.90;;;;;;5049485;28;20108;-73
2024/01/07 02:49:46;;;;;;;8.03;4.20;;;5.20;99.90;;;;;;5049729;28;20035;-73
2024/01/07 02:52:11;;;;;;;6.70;4.17;;;5.20;99.90;;;;;;5049037;28;20049;-73
2024/01/07 02:54:37;;;;;;;4.17;3.10;;;5.20;99.90;;;;;;5049207;28;20376;-73
2024/01/07 02:57:07;;;;;;;6.30;3.77;;;5.20;99.90;;;;;;5031964;28;20032;-73
2024/01/07 02:59:33;;;;;;;5.40;3.42;;;5.20;99.90;;;;;;5032006;28;20391;-73
2024/01/07 03:01:59;;;;;;;9.48;3.80;;;5.10;99.90;;;;;;5050075;28;20067;-73
2024/01/07 03:04:24;;;;;;;5.23;3.40;;;5.20;99.90;;;;;;5050092;28;20502;-73
2024/01/07 03:06:50;;;;;;;4.77;3.30;;;5.20;99.90;;;;;;5030368;28;20040;-73
2024/01/07 03:09:15;;;;;;;5.70;3.73;;;5.20;99.90;;;;;;5049781;28;20055;-73
2024/01/07 03:11:41;;;;;;;6.63;3.67;;;5.20;99.90;;;;;;5050125;28;20055;-72
2024/01/07 03:14:07;;;;;;;8.23;3.85;;;5.10;99.90;;;;;;5032162;28;20393;-73
2024/01/07 03:16:32;;;;;;;5.70;3.00;;;5.10;99.90;;;;;;5049725;28;20109;-72
2024/01/07 03:18:58;;;;;;;3.87;2.77;;;5.10;99.90;;;;;;5050629;28;20025;-73
2024/01/07 03:21:24;;;;;;;5.20;3.63;;;5.20;99.90;;;;;;5051347;28;20014;-73
2024/01/07 03:23:50;;;;;;;5.78;3.63;;;5.20;99.90;;;;;;5050990;28;20271;-73
2024/01/07 03:26:18;;;;;;;5.38;3.30;;;5.10;99.90;;;;;;5049950;28;20029;-73
2024/01/07 03:28:44;;;;;;;5.35;3.03;;;5.20;99.90;;;;;;5050184;28;20049;-73
2024/01/07 03:31:13;;;;;;;6.00;4.10;;;5.10;99.90;;;;;;5031623;28;20025;-73
2024/01/07 03:33:39;;;;;;;4.85;3.40;;;5.10;99.90;;;;;;5049153;28;20036;-73
2024/01/07 03:36:13;;;;;;;4.93;3.05;;;5.20;99.90;;;;;;5031305;28;20025;-73
2024/01/07 03:38:40;;;;;;;4.43;3.08;;;5.10;99.90;;;;;;5046826;28;20051;-73
2024/01/07 03:41:06;;;;;;;5.55;3.50;;;5.20;99.90;;;;;;5029356;28;20033;-73
2024/01/07 03:43:32;;;;;;;4.63;3.30;;;5.20;99.90;;;;;;5044456;28;20509;-73
2024/01/07 03:45:59;;;;;;;6.40;3.72;;;5.20;99.90;;;;;;5044985;28;20021;-72
2024/01/07 03:48:26;;;;;;;6.20;3.97;;;5.20;99.90;;;;;;5048962;28;20028;-72
2024/01/07 03:50:51;;;;;;;7.80;4.65;;;5.10;99.90;;;;;;5048809;28;20534;-73
2024/01/07 03:53:18;;;;;;;9.60;4.68;;;5.10;99.90;;;;;;5048988;28;20048;-73
2024/01/07 03:55:44;;;;;;;8.38;4.57;;;5.10;99.90;;;;;;5048765;28;20605;-72
2024/01/07 03:58:10;;;;;;;8.43;5.10;;;5.10;99.90;;;;;;5049026;28;20041;-72
2024/01/07 04:00:36;;;;;;;7.93;5.03;;;5.00;99.90;;;;;;5048599;28;20029;-72
2024/01/07 04:03:02;;;;;;;6.93;4.38;;;5.10;99.90;;;;;;5049716;28;20027;-73
2024/01/07 04:05:29;;;;;;;7.53;4.68;;;5.00;99.90;;;;;;5049181;28;20406;-73
2024/01/07 04:07:54;;;;;;;9.15;5.10;;;5.00;99.90;;;;;;5030961;28;20088;-72
2024/01/07 04:10:20;;;;;;;8.30;4.63;;;5.00;99.90;;;;;;5048487;28;20068;-72
2024/01/07 04:12:46;;;;;;;7.93;4.80;;;5.00;99.90;;;;;;5048400;28;20031;-72
2024/01/07 04:15:12;;;;;;;7.33;4.40;;;4.90;99.90;;;;;;5048565;28;20029;-72
2024/01/07 04:17:38;;;;;;;8.90;5.20;;;5.00;99.90;;;;;;5048424;28;20041;-72
2024/01/07 04:20:05;;;;;;;7.13;4.03;;;5.00;99.90;;;;;;5048456;28;20031;-73
2024/01/07 04:22:31;;;;;;;8.88;4.55;;;5.00;99.90;;;;;;5060557;28;20033;-73
2024/01/07 04:24:56;;;;;;;9.20;5.13;;;5.00;99.90;;;;;;5049733;28;20075;-74
2024/01/07 04:27:22;;;;;;;8.77;4.67;;;5.00;99.90;;;;;;5049343;28;20067;-72
2024/01/07 04:29:47;;;;;;;8.67;4.70;;;5.00;99.90;;;;;;5048968;28;20029;-72
2024/01/07 04:32:13;;;;;;;9.70;4.67;;;5.00;99.90;;;;;;5064477;28;20029;-73
2024/01/07 04:34:38;;;;;;;7.47;4.47;;;5.00;99.90;;;;;;5048691;28;20032;-73
2024/01/07 04:37:04;;;;;;;10.93;4.80;;;4.90;99.90;;;;;;5048058;28;20498;-72
2024/01/07 04:39:30;;;;;;;7.73;4.73;;;4.90;99.90;;;;;;5047763;28;20021;-73
2024/01/07 04:41:55;;;;;;;8.70;4.75;;;4.90;99.90;;;;;;5047684;28;20041;-72
2024/01/07 04:44:21;;;;;;;8.87;4.67;;;4.90;99.90;;;;;;5048180;28;20032;-72
2024/01/07 04:46:47;;;;;;;7.37;4.03;;;4.90;99.90;;;;;;5063477;28;20037;-73
2024/01/07 04:49:13;;;;;;;7.65;4.28;;;4.90;99.90;;;;;;5049706;28;20078;-72
2024/01/07 04:51:38;;;;;;;9.53;4.60;;;4.90;99.90;;;;;;5052222;28;20115;-73
2024/01/07 04:54:05;;;;;;;8.90;4.30;;;4.80;99.90;;;;;;5052390;28;20021;-72
2024/01/07 04:56:31;;;;;;;7.13;3.90;;;4.80;99.90;;;;;;5052098;28;20302;-73
2024/01/07 04:58:57;;;;;;;8.65;5.22;;;4.80;99.90;;;;;;5051660;28;20598;-73
2024/01/07 05:01:23;;;;;;;7.75;4.40;;;4.80;99.90;;;;;;5050668;28;20101;-72
2024/01/07 05:03:48;;;;;;;8.20;4.70;;;4.80;99.90;;;;;;5052411;28;20025;-73
2024/01/07 05:06:14;;;;;;;8.77;4.50;;;4.80;99.90;;;;;;5052294;28;20351;-73
2024/01/07 05:08:43;;;;;;;9.13;4.78;;;4.80;99.90;;;;;;5052012;28;20051;-72
2024/01/07 05:11:08;;;;;;;6.60;4.10;;;4.80;99.90;;;;;;5051592;28;20024;-73
2024/01/07 05:13:37;;;;;;;9.80;4.83;;;4.70;99.90;;;;;;5051865;28;20067;-73
2024/01/07 05:16:02;;;;;;;4.93;3.53;;;4.80;99.90;;;;;;5051527;28;20032;-72
2024/01/07 05:18:28;;;;;;;7.15;3.92;;;4.70;99.90;;;;;;5051752;28;20111;-72
2024/01/07 05:20:54;;;;;;;6.30;4.03;;;4.80;99.90;;;;;;5051399;28;20048;-72
2024/01/07 05:23:20;;;;;;;8.10;3.53;;;4.70;99.90;;;;;;5051060;28;20064;-72
2024/01/07 05:25:46;;;;;;;8.68;4.43;;;4.70;99.90;;;;;;5033577;28;20514;-72
2024/01/07 05:28:12;;;;;;;6.63;3.53;;;4.70;99.90;;;;;;5051778;28;20025;-73
2024/01/07 05:30:43;;;;;;;6.93;3.63;;;4.70;99.90;;;;;;5052093;28;20510;-71
2024/01/07 05:33:09;;;;;;;5.88;3.47;;;4.60;99.90;;;;;;5051763;28;20530;-72
2024/01/07 05:35:35;;;;;;;5.88;3.47;;;4.70;99.90;;;;;;5032776;28;20033;-72
2024/01/07 05:38:01;;;;;;;6.47;3.38;;;4.60;99.90;;;;;;5033293;28;20048;-72
2024/01/07 05:40:27;;;;;;;7.35;3.70;;;4.60;99.90;;;;;;5051386;28;20044;-72
2024/01/07 05:42:52;;;;;;;6.50;3.57;;;4.60;99.90;;;;;;5050510;28;20099;-72
2024/01/07 05:45:18;;;;;;;4.97;3.13;;;4.50;99.90;;;;;;5050680;28;20564;-72
2024/01/07 05:47:44;;;;;;;5.97;3.67;;;4.50;99.90;;;;;;5050005;28;20079;-73
2024/01/07 05:50:10;;;;;;;4.37;3.00;;;4.50;99.90;;;;;;5049850;28;20029;-73
2024/01/07 05:52:36;;;;;;;4.85;3.30;;;4.50;99.90;;;;;;5064852;28;20296;-72
2024/01/07 05:55:02;;;;;;;5.25;3.97;;;4.50;99.90;;;;;;5049993;28;20616;-73
2024/01/07 05:57:28;;;;;;;7.88;3.58;;;4.50;99.90;;;;;;5048270;28;20025;-73
2024/01/07 05:59:54;;;;;;;6.68;3.47;;;4.50;99.90;;;;;;5048226;28;20029;-73
2024/01/07 06:02:21;;;;;;;6.80;3.67;;;4.50;99.90;;;;;;5049837;28;20067;-73
2024/01/07 06:04:46;;;;;;;5.90;3.55;;;4.50;99.90;;;;;;5049692;28;20052;-73
2024/01/07 06:07:12;;;;;;;6.00;3.73;;;4.50;99.90;;;;;;5050241;28;20469;-73
2024/01/07 06:09:37;;;;;;;4.83;3.60;;;4.50;99.90;;;;;;5050122;28;20082;-73
2024/01/07 06:12:07;;;;;;;4.87;3.30;;;4.50;99.90;;;;;;5050662;28;20024;-73
2024/01/07 06:14:32;;;;;;;5.13;2.83;;;4.50;99.90;;;;;;5051294;28;20067;-72
2024/01/07 06:16:58;;;;;;;6.37;3.23;;;4.50;99.90;;;;;;5033231;28;20064;-73
2024/01/07 06:19:23;;;;;;;5.40;3.80;;;4.50;99.90;;;;;;5054363;28;20041;-73
2024/01/07 06:21:49;;;;;;;4.67;3.03;;;4.50;99.90;;;;;;5071538;28;20024;-73
2024/01/07 06:24:14;;;;;;;4.83;3.27;;;4.50;99.90;;;;;;5069974;28;20035;-73
2024/01/07 06:26:40;;;;;;;6.30;3.70;;;4.50;99.90;;;;;;5069467;28;20067;-73
2024/01/07 06:29:06;;;;;;;5.00;3.20;;;4.50;99.90;;;;;;5069645;28;20036;-73
2024/01/07 06:31:31;;;;;;;5.70;3.77;;;4.40;99.90;;;;;;5069394;28;20040;-72
2024/01/07 06:33:57;;;;;;;5.83;3.13;;;4.50;99.90;;;;;;5070043;28;20281;-72
2024/01/07 06:36:24;;;;;;;4.78;3.13;;;4.40;99.90;;;;;;5070764;28;20028;-73
2024/01/07 06:38:50;;;;;;;6.88;3.13;;;4.40;99.90;;;;;;5069732;28;20068;-73
2024/01/07 06:41:16;;;;;;;4.70;2.90;;;4.40;99.90;;;;;;5028963;28;1106603;-73
2024/01/07 06:43:41;;;;;;;4.50;2.97;;;4.30;99.90;;;;;;5069919;28;20073;-72
2024/01/07 06:46:07;;;;;;;5.67;3.63;;;4.30;99.90;;;;;;5067958;28;20047;-72
2024/01/07 06:48:32;;;;;;;5.53;2.90;;;4.30;99.90;;;;;;5051445;28;20024;-73
2024/01/07 06:50:58;;;;;;;6.83;3.60;;;4.30;99.90;;;;;;5055689;28;20047;-73
2024/01/07 06:53:24;;;;;;;4.20;2.77;;;4.30;99.90;;;;;;5049230;28;20287;-73
2024/01/07 06:55:50;;;;;;;5.72;3.20;;;4.30;99.90;;;;;;5047525;28;20510;-73
2024/01/07 06:58:15;;;;;;;5.35;3.38;;;4.30;99.90;;;;;;5049977;28;20029;-73
2024/01/07 07:00:41;;;;;;;5.40;3.63;;;4.30;99.90;;;;;;5031999;28;20032;-72
2024/01/07 07:03:08;;;;;;;6.32;3.78;;;4.30;99.90;;;;;;5032468;28;20317;-73
2024/01/07 07:05:34;;;;;;;6.57;3.55;;;4.30;99.90;;;;;;5038006;28;20033;-72
2024/01/07 07:08:01;;;;;;;6.20;3.30;;;4.30;99.90;;;;;;5031418;28;20514;-73
2024/01/07 07:10:26;;;;;;;5.28;2.95;;;4.30;99.90;;;;;;5045695;28;20548;-72
2024/01/07 07:12:52;;;;;;;6.53;4.13;;;4.20;99.90;;;;;;5036005;28;20137;-73
2024/01/07 07:15:19;;;;;;;5.75;3.05;;;4.20;99.90;;;;;;5016611;28;20224;-73
2024/01/07 07:17:45;;;;;;;8.10;4.05;;;4.20;99.90;;;;;;5036199;28;20068;-72
2024/01/07 07:20:11;;;;;;;8.50;4.00;;;4.20;99.90;;;;;;5029345;28;20503;-72
2024/01/07 07:22:37;;;;;;;7.97;4.30;;;4.30;99.90;;;;;;5035283;28;20458;-72
2024/01/07 07:25:05;;;;;;;5.75;3.75;;;4.20;99.90;;;;;;5058723;28;20622;-72
2024/01/07 07:27:31;;;;;;;8.07;4.45;;;4.20;99.90;;;;;;5018450;28;20647;-72
2024/01/07 07:29:56;;;;;;;6.38;4.00;;;4.20;99.90;;;;;;5051617;28;20029;-73
2024/01/07 07:32:22;;;;;;;6.27;3.83;;;4.20;99.90;;;;;;5047721;28;20498;-72
2024/01/07 07:34:48;;;;;;;7.57;4.57;;;4.20;99.90;;;;;;5043455;28;20021;-73
2024/01/07 07:37:13;;;;;;;7.03;4.50;;;4.10;99.90;;;;;;5045756;28;20057;-72
2024/01/07 07:39:39;;;;;;;7.80;4.38;;;4.20;99.90;;;;;;5047386;28;20025;-72
2024/01/07 07:42:05;;;;;;;7.78;4.72;;;4.20;99.90;;;;;;5020360;28;20064;-72
2024/01/07 07:44:31;;;;;;;6.65;3.88;;;4.20;99.90;;;;;;5041853;28;20033;-72
2024/01/07 07:46:57;;;;;;;7.88;4.25;;;4.20;99.90;;;;;;5029410;28;20025;-72
2024/01/07 07:49:23;;;;;;;8.77;4.70;;;4.20;99.90;;;;;;5033745;28;20060;-71
2024/01/07 07:51:48;;;;;;;7.63;4.40;;;4.20;99.90;;;;;;5061336;28;20053;-72
2024/01/07 07:54:14;;;;;;;8.43;4.87;;;4.20;99.90;;;;;;5038512;28;20041;-73
2024/01/07 07:56:40;;;;;;;8.80;4.72;;;4.20;99.90;;;;;;5021473;28;20029;-72
2024/01/07 07:59:06;;;;;;;7.60;4.30;;;4.20;99.90;;;;;;5033995;28;20059;-72
2024/01/07 08:01:31;;;;;;;8.40;4.97;;;4.20;99.90;;;;;;5024196;28;20087;-72
2024/01/07 08:03:57;;;;;;;11.07;5.70;;;4.10;99.90;;;;;;5057036;28;20654;-71
2024/01/07 08:06:23;;;;;;;8.80;5.70;;;4.20;99.90;;;;;;5037472;28;20031;-71
2024/01/07 08:08:48;;;;;;;8.07;4.35;;;4.20;99.90;;;;;;5042695;28;20040;-71
2024/01/07 08:11:14;;;;;;;6.97;4.27;;;4.20;99.90;;;;;;5046264;28;20082;-71
2024/01/07 08:13:41;;;;;;;10.07;4.73;;;4.20;99.90;;;;;;5040952;28;20029;-72
2024/01/07 08:16:07;;;;;;;8.00;5.00;;;4.30;99.90;;;;;;5050507;28;20029;-71
2024/01/07 08:18:32;;;;;;;8.10;4.50;;;4.20;99.90;;;;;;5033809;28;20048;-71
2024/01/07 08:20:58;;;;;;;12.23;4.63;;;4.20;99.90;;;;;;5044984;28;20036;-71
2024/01/07 08:23:25;;;;;;;9.57;5.25;;;4.20;99.90;;;;;;5042011;28;20036;-71
2024/01/07 08:25:51;;;;;;;7.00;4.53;;;4.30;99.90;;;;;;5039128;28;20041;-71
2024/01/07 08:28:17;;;;;;;10.82;5.10;;;4.20;99.90;;;;;;5040525;28;20102;-71
2024/01/07 08:30:44;;;;;;;8.00;4.72;;;4.30;99.90;;;;;;5031376;28;20029;-70
2024/01/07 08:33:10;;;;;;;8.90;5.38;;;4.30;99.90;;;;;;5033468;28;20030;-74
2024/01/07 08:35:35;;;;;;;11.25;5.43;;;4.30;99.90;;;;;;5038281;28;20032;-72
2024/01/07 08:38:01;;;;;;;9.23;4.70;;;4.40;99.90;;;;;;5037847;28;20125;-68
2024/01/07 08:40:27;;;;;;;9.10;5.18;;;4.40;99.90;;;;;;5036481;28;20025;-72
2024/01/07 08:42:53;;;;;;;9.13;5.50;;;4.30;99.90;;;;;;5038336;28;20760;-72
2024/01/07 08:45:18;;;;;;;8.00;4.20;;;4.30;99.90;;;;;;5037664;28;20295;-70
2024/01/07 08:47:44;;;;;;;10.32;4.90;;;4.30;99.90;;;;;;5045197;28;20033;-71
2024/01/07 08:50:10;;;;;;;11.18;5.60;;;4.40;99.90;;;;;;5040067;28;20040;-70
2024/01/07 08:52:37;;;;;;;12.73;4.70;;;4.40;99.90;;;;;;5032776;28;20044;-71
2024/01/07 08:55:06;;;;;;;12.73;4.88;;;4.40;99.90;;;;;;5053423;28;20454;-71
2024/01/07 08:57:32;;;;;;;9.70;4.78;;;4.40;99.90;;;;;;5052916;28;20030;-71
2024/01/07 08:59:58;;;;;;;7.10;4.40;;;4.40;99.90;;;;;;5032816;28;20044;-71
2024/01/07 09:02:23;;;;;;;7.70;4.47;;;4.40;99.90;;;;;;5037770;28;20029;-70
2024/01/07 09:04:49;;;;;;;8.68;4.65;;;4.50;99.90;;;;;;5036912;28;20039;-71
2024/01/07 09:07:16;;;;;;;9.53;4.93;;;4.40;99.90;;;;;;5039550;28;20049;-71
2024/01/07 09:09:42;;;;;;;7.50;4.80;;;4.40;99.90;;;;;;5038223;28;20021;-71
2024/01/07 09:12:08;;;;;;;11.88;5.43;;;4.40;99.90;;;;;;5039667;28;20118;-71
2024/01/07 09:14:34;;;;;;;7.78;4.88;;;4.40;99.90;;;;;;5026985;28;20115;-72
2024/01/07 09:17:00;;;;;;;8.85;4.93;;;4.40;99.90;;;;;;5054295;28;20025;-71
2024/01/07 09:19:25;;;;;;;9.00;4.82;;;4.40;99.90;;;;;;5048001;28;20025;-72
2024/01/07 09:21:52;;;;;;;8.30;4.60;;;4.40;99.90;;;;;;5039546;28;20021;-72
2024/01/07 09:24:18;;;;;;;7.75;4.57;;;4.40;99.90;;;;;;5038840;28;20094;-72
2024/01/07 09:26:44;;;;;;;11.57;4.65;;;4.40;99.90;;;;;;5037643;28;20029;-71
2024/01/07 09:29:10;;;;;;;9.53;4.50;;;4.40;99.90;;;;;;5032770;28;20418;-71
2024/01/07 09:31:36;;;;;;;8.63;5.13;;;4.50;99.90;;;;;;5040022;28;20123;-71
2024/01/07 09:34:02;;;;;;;8.90;4.30;;;4.40;99.90;;;;;;5035969;28;20108;-72
2024/01/07 09:36:27;;;;;;;7.57;4.50;;;4.40;99.90;;;;;;5055127;28;20474;-71
2024/01/07 09:38:53;;;;;;;9.03;4.37;;;4.40;99.90;;;;;;5026451;28;20112;-71
2024/01/07 09:41:19;;;;;;;9.35;4.88;;;4.40;99.90;;;;;;5018524;28;20116;-71
2024/01/07 09:43:45;;;;;;;8.57;4.63;;;4.40;99.90;;;;;;5037290;28;20034;-71
2024/01/07 09:46:11;;;;;;;10.75;5.20;;;4.40;99.90;;;;;;5054303;28;20022;-71
2024/01/07 09:48:37;;;;;;;7.75;4.70;;;4.50;99.90;;;;;;5043561;28;20038;-72
2024/01/07 09:51:04;;;;;;;11.70;5.57;;;4.60;99.90;;;;;;5048413;28;20037;-72
2024/01/07 09:53:32;;;;;;;8.45;4.53;;;4.60;99.90;;;;;;5031533;28;20041;-71
2024/01/07 09:56:23;;;;;;;10.25;5.13;;;4.60;99.90;;;;;;5031447;28;20384;-72
2024/01/07 09:58:49;;;;;;;8.65;5.03;;;4.60;99.90;;;;;;5051909;28;20032;-72
2024/01/07 10:01:18;;;;;;;;;;;4.60;99.90;;;;;;5046258;28;20028;-71
2024/01/07 10:03:44;;;;;;;8.82;4.15;;;4.60;99.90;;;;;;5039987;28;19909;-71
2024/01/07 10:06:13;;;;;;;10.32;4.93;;;4.60;99.90;;;;;;5044702;28;20028;-72
2024/01/07 10:08:39;;;;;;;14.65;5.22;;;4.60;99.90;;;;;;5043790;28;20045;-72
2024/01/07 10:11:05;;;;;;;8.15;3.80;;;4.70;99.90;;;;;;5048713;28;20064;-72
2024/01/07 10:13:32;;;;;;;7.30;4.22;;;4.70;99.90;;;;;;5060529;28;20088;-71
2024/01/07 10:15:58;;;;;;;8.63;4.68;;;4.60;99.90;;;;;;5040764;28;20120;-71
2024/01/07 10:18:25;;;;;;;9.93;5.03;;;4.70;99.90;;;;;;5047955;28;20099;-71
2024/01/07 10:20:51;;;;;;;9.13;4.80;;;4.70;99.90;;;;;;5045733;28;20060;-70
2024/01/07 10:23:20;;;;;;;7.22;4.80;;;4.60;99.90;;;;;;5041659;28;20101;-71
2024/01/07 10:25:47;;;;;;;8.18;3.90;;;4.60;99.90;;;;;;5043809;28;20037;-75
2024/01/07 10:28:14;;;;;;;8.40;4.50;;;4.70;99.90;;;;;;5039042;28;20670;-73
2024/01/07 10:30:42;;;;;;;7.75;4.03;;;4.60;99.90;;;;;;5042079;28;20040;-73
2024/01/07 10:33:08;;;;;;;8.10;4.68;;;4.60;99.90;;;;;;5033162;28;20399;-72
2024/01/07 10:35:37;;;;;;;8.77;4.87;;;4.60;99.90;;;;;;5054310;28;20030;-71
2024/01/07 10:38:03;;;;;;;8.93;4.55;;;4.70;99.90;;;;;;5039867;28;20064;-71
2024/01/07 10:40:33;;;;;;;9.60;5.40;;;4.70;99.90;;;;;;5028069;28;20065;-71
2024/01/07 10:42:59;;;;;;;8.23;4.57;;;4.70;99.90;;;;;;5054183;28;20413;-71
2024/01/07 10:45:24;;;;;;;8.67;5.07;;;4.70;99.90;;;;;;5037120;28;20486;-70
2024/01/07 10:47:54;;;;;;;13.33;5.70;;;4.60;99.90;;;;;;5038013;28;20280;-71
2024/01/07 10:50:21;;;;;;;10.82;4.70;;;4.60;99.90;;;;;;5041326;28;20059;-71
2024/01/07 10:52:51;;;;;;;8.68;4.93;;;4.70;99.90;;;;;;5045972;28;20052;-71
2024/01/07 10:55:18;;;;;;;12.68;5.82;;;4.70;99.90;;;;;;5036423;28;21052;-70
2024/01/07 10:57:49;;;;;;;11.38;5.95;;;4.70;99.90;;;;;;5045511;28;20083;-70
2024/01/07 11:00:19;;;;;;;10.70;5.93;;;4.70;99.90;;;;;;5059703;28;20033;-70
2024/01/07 11:03:06;;;;;;;10.13;5.60;;;4.70;99.90;;;;;;5044186;28;20021;-70
2024/01/07 11:05:54;;;;;;;11.07;6.10;;;4.70;99.90;;;;;;5056436;28;20071;-69
2024/01/07 11:08:26;;;;;;;14.00;7.05;;;4.70;99.90;;;;;;5041783;28;20411;-69
2024/01/07 11:11:07;;;;;;;9.63;5.47;;;4.70;99.90;;;;;;5036977;28;20037;-70
2024/01/07 11:13:40;;;;;;;12.93;6.72;;;4.70;99.90;;;;;;5039489;28;20029;-70
2024/01/07 11:16:09;;;;;;;11.30;5.93;;;4.70;99.90;;;;;;5044434;28;20030;-70
2024/01/07 11:18:50;;;;;;;15.00;6.90;;;4.80;99.90;;;;;;5033624;28;20127;-69
2024/01/07 11:21:24;;;;;;;14.90;7.25;;;4.80;99.90;;;;;;5057906;28;20039;-70
2024/01/07 11:23:52;;;;;;;12.02;6.95;;;4.80;99.90;;;;;;5042267;28;20022;-70
2024/01/07 11:26:18;;;;;;;11.57;7.25;;;4.70;99.90;;;;;;5040632;28;20722;-70
2024/01/07 11:28:56;;;;;;;13.60;7.55;;;4.70;99.90;;;;;;5040284;28;20030;-70
2024/01/07 11:31:41;;;;;;;12.65;7.28;;;4.80;99.90;;;;;;5048035;28;20037;-70
2024/01/07 11:34:09;;;;;;;12.00;7.00;;;4.70;99.90;;;;;;5031870;28;20029;-70
2024/01/07 11:36:36;;;;;;;13.65;7.80;;;4.70;99.90;;;;;;5040290;28;20029;-70
2024/01/07 11:39:03;;;;;;;13.02;7.07;;;4.70;99.90;;;;;;5045852;28;20510;-69
2024/01/07 11:41:33;;;;;;;14.73;6.80;;;4.70;99.90;;;;;;5035308;28;20044;-69
2024/01/07 11:44:00;;;;;;;13.10;7.75;;;4.80;99.90;;;;;;5035537;28;20407;-69
2024/01/07 11:46:30;;;;;;;12.65;7.07;;;4.80;99.90;;;;;;5036076;28;20021;-69
2024/01/07 11:48:59;;;;;;;14.35;7.18;;;4.80;99.90;;;;;;5036119;28;20084;-69
2024/01/07 11:51:26;;;;;;;12.65;6.60;;;4.70;99.90;;;;;;5053280;28;20068;-70
2024/01/07 11:53:52;;;;;;;12.13;7.15;;;4.70;99.90;;;;;;5050487;28;20090;-70
2024/01/07 11:56:18;;;;;;;11.82;6.38;;;4.70;99.90;;;;;;5049558;28;20483;-71
2024/01/07 11:58:44;;;;;;;12.45;6.57;;;4.70;99.90;;;;;;5050042;28;20029;-71
2024/01/07 12:01:10;;;;;;;13.20;6.15;;;4.70;99.90;;;;;;5050635;28;20017;-71
2024/01/07 12:03:36;;;;;;;10.83;6.17;;;4.70;99.90;;;;;;5049995;28;20024;-69
2024/01/07 12:06:02;;;;;;;13.82;6.05;;;4.70;99.90;;;;;;5032502;28;20056;-70
2024/01/07 12:08:28;;;;;;;12.20;6.38;;;4.80;99.90;;;;;;5052914;28;20058;-71
2024/01/07 12:10:55;;;;;;;11.70;6.30;;;4.70;99.90;;;;;;5050516;28;20486;-71
2024/01/07 12:13:21;;;;;;;11.07;5.78;;;4.70;99.90;;;;;;5050594;28;20029;-71
2024/01/07 12:15:47;;;;;;;12.07;6.70;;;4.70;99.90;;;;;;5050133;28;20449;-70
2024/01/07 12:18:12;;;;;;;12.02;6.55;;;4.70;99.90;;;;;;5050629;28;20040;-70
2024/01/07 12:20:38;;;;;;;13.10;6.60;;;4.70;99.90;;;;;;5050739;28;20029;-70
2024/01/07 12:23:08;;;;;;;11.35;6.28;;;4.70;99.90;;;;;;5050622;28;20032;-69
2024/01/07 12:25:34;;;;;;;13.45;5.60;;;4.70;99.90;;;;;;5050331;28;20037;-70
2024/01/07 12:28:00;;;;;;;;;;;4.60;99.90;;;;;;5050888;28;20025;-70
2024/01/07 12:30:26;;;;;;;12.07;6.40;;;4.60;99.90;;;;;;5050647;28;19955;-70
2024/01/07 12:32:53;;;;;;;11.18;6.68;;;4.50;99.90;;;;;;5050364;28;20051;-70
2024/01/07 12:35:18;;;;;;;;;;;4.50;99.90;;;;;;5050864;28;20508;-70
2024/01/07 12:37:44;;;;;;;11.48;6.20;;;4.50;99.90;;;;;;5050731;28;19912;-70
2024/01/07 12:40:11;;;;;;;11.10;6.38;;;4.50;99.90;;;;;;5065751;28;20035;-70
2024/01/07 12:42:44;;;;;;;13.93;6.53;;;4.60;99.90;;;;;;5050302;28;20072;-70
2024/01/07 12:45:14;;;;;;;11.63;6.15;;;4.50;99.90;;;;;;5050425;28;20502;-70
2024/01/07 12:47:43;;;;;;;8.57;5.15;;;4.50;99.90;;;;;;5065707;28;20025;-70
2024/01/07 12:50:09;;;;;;;9.40;5.60;;;4.60;99.90;;;;;;5049665;28;20025;-70
2024/01/07 12:52:39;;;;;;;;;;;4.50;99.90;;;;;;5050371;28;20025;-70